Time;durP1;ratioP1;P1;durP2;ratioP2;P2;SDS_P1;SDS_P2;PMS_P1;PMS_P2;Temp;Humidity;BMP_temperature;BMP_pressure;BME280_temperature;BME280_humidity;BME280_pressure;Samples;Min_cycle;Max_cycle;Signal;HPM_P1;HPM_P2
2022/01/08 00:02:10;;;;;;;26.65;14.05;;;;;;;-4.94;100.00;102084.85;1745971;80;21112;-86
2022/01/08 00:04:37;;;;;;;26.20;13.78;;;;;;;-4.95;100.00;102081.44;1738095;82;21533;-85
2022/01/08 00:07:05;;;;;;;27.25;14.65;;;;;;;-4.96;100.00;102086.51;1738448;82;21065;-85
2022/01/08 00:09:32;;;;;;;27.42;17.65;;;;;;;-4.95;100.00;102089.49;1738001;82;21072;-86
2022/01/08 00:12:01;;;;;;;29.27;17.30;;;;;;;-4.98;100.00;102090.70;1738191;81;20986;-86
2022/01/08 00:14:29;;;;;;;51.73;23.50;;;;;;;-5.04;100.00;102086.83;1744063;81;21124;-86
2022/01/08 00:16:58;;;;;;;53.60;25.82;;;;;;;-5.09;100.00;102097.77;1738089;82;20970;-86
2022/01/08 00:19:25;;;;;;;67.35;27.95;;;;;;;-5.14;100.00;102094.31;1745517;80;21017;-86
2022/01/08 00:21:52;;;;;;;70.30;28.40;;;;;;;-5.19;100.00;102088.73;1738289;82;21526;-85
2022/01/08 00:24:19;;;;;;;59.23;27.10;;;;;;;-5.23;100.00;102095.45;1738545;82;21037;-86
2022/01/08 00:26:46;;;;;;;62.45;28.70;;;;;;;-5.26;100.00;102097.53;1745631;82;21116;-85
2022/01/08 00:29:13;;;;;;;53.30;24.52;;;;;;;-5.29;100.00;102098.78;1738228;82;21056;-86
2022/01/08 00:31:41;;;;;;;44.65;20.75;;;;;;;-5.32;100.00;102099.13;1737885;82;21040;-86
2022/01/08 00:34:09;;;;;;;46.25;21.48;;;;;;;-5.36;100.00;102098.22;1743588;81;21037;-86
2022/01/08 00:36:37;;;;;;;35.60;17.77;;;;;;;-5.37;100.00;102095.67;1740587;81;21071;-86
2022/01/08 00:39:04;;;;;;;31.68;16.50;;;;;;;-5.43;100.00;102093.89;1756246;80;21114;-85
2022/01/08 00:41:32;;;;;;;27.10;14.47;;;;;;;-5.50;100.00;102091.69;1767477;79;20997;-87
2022/01/08 00:43:59;;;;;;;22.05;13.08;;;;;;;-5.56;100.00;102089.03;1740811;81;20993;-86
2022/01/08 00:46:26;;;;;;;21.57;12.60;;;;;;;-5.65;100.00;102091.45;1740276;81;20997;-86
2022/01/08 00:48:54;;;;;;;23.05;12.73;;;;;;;-5.71;100.00;102087.97;1740605;81;21041;-86
2022/01/08 00:51:25;;;;;;;23.55;13.13;;;;;;;-5.74;100.00;102098.48;1766462;79;21021;-87
2022/01/08 00:53:52;;;;;;;19.55;11.55;;;;;;;-5.81;100.00;102092.88;1740892;82;21025;-86
2022/01/08 00:56:19;;;;;;;17.10;10.20;;;;;;;-5.88;100.00;102096.98;1740609;81;21499;-87
2022/01/08 00:58:46;;;;;;;18.00;9.63;;;;;;;-5.95;100.00;102088.44;1740656;81;21073;-87
2022/01/08 01:01:13;;;;;;;14.07;8.93;;;;;;;-5.99;100.00;102091.77;1740935;81;21001;-87
2022/01/08 01:03:40;;;;;;;15.15;8.83;;;;;;;-6.00;100.00;102093.02;1740417;82;21617;-86
2022/01/08 01:06:08;;;;;;;16.45;9.25;;;;;;;-6.04;100.00;102090.84;1740376;81;21570;-87
2022/01/08 01:08:35;;;;;;;14.93;7.47;;;;;;;-6.11;100.00;102100.44;1740557;81;21036;-85
2022/01/08 01:11:02;;;;;;;12.13;7.42;;;;;;;-6.15;100.00;102093.19;1741099;81;21025;-85
2022/01/08 01:13:29;;;;;;;12.88;6.58;;;;;;;-6.12;100.00;102089.85;1740855;81;21048;-87
2022/01/08 01:15:57;;;;;;;10.93;7.15;;;;;;;-6.07;100.00;102093.31;1740691;82;21129;-86
2022/01/08 01:18:24;;;;;;;12.75;6.97;;;;;;;-6.03;100.00;102087.05;1740612;81;21118;-86
2022/01/08 01:20:51;;;;;;;13.03;7.53;;;;;;;-5.96;100.00;102084.58;1740814;80;21041;-86
2022/01/08 01:23:29;;;;;;;12.37;7.42;;;;;;;-5.90;100.00;102088.09;1740551;81;21104;-88
2022/01/08 01:25:56;;;;;;;12.18;7.70;;;;;;;-5.83;100.00;102095.40;1741192;81;21037;-88
2022/01/08 01:28:38;;;;;;;11.20;6.95;;;;;;;-5.78;100.00;102097.59;1740566;81;21146;-87
2022/01/08 01:42:38;;;;;;;21.05;10.82;;;;;;;-5.82;100.00;102098.37;1740899;82;21582;-86
2022/01/08 01:47:06;;;;;;;26.50;13.13;;;;;;;-5.80;100.00;102087.81;1741067;82;21012;-87
2022/01/08 01:49:41;;;;;;;33.13;14.90;;;;;;;-5.83;100.00;102089.05;1736199;81;21172;-87
2022/01/08 01:52:12;;;;;;;26.42;13.30;;;;;;;-5.92;100.00;102087.20;1729726;82;21488;-86
2022/01/08 01:54:40;;;;;;;26.80;13.28;;;;;;;-5.97;100.00;102085.44;1710928;81;21059;-87
2022/01/08 01:57:10;;;;;;;27.07;13.72;;;;;;;-6.01;100.00;102083.30;1729805;81;21030;-87
2022/01/08 01:59:41;;;;;;;24.55;12.82;;;;;;;-6.03;100.00;102085.78;1729541;81;21027;-87
2022/01/08 02:02:10;;;;;;;22.15;11.80;;;;;;;-6.03;100.00;102086.21;1711272;82;21358;-87
2022/01/08 02:04:37;;;;;;;25.05;12.70;;;;;;;-6.03;100.00;102099.73;1711230;82;21102;-88
2022/01/08 02:07:04;;;;;;;31.33;14.85;;;;;;;-6.00;100.00;102114.58;1729878;81;21119;-88
2022/01/08 02:09:34;;;;;;;25.08;12.88;;;;;;;-5.98;100.00;102120.08;1729574;81;21034;-87
2022/01/08 02:12:07;;;;;;;25.08;13.00;;;;;;;-5.98;100.00;102113.73;1729910;81;21027;-87
2022/01/08 02:14:37;;;;;;;22.22;11.18;;;;;;;-5.99;100.00;102108.67;1729975;81;21076;-86
2022/01/08 02:17:07;;;;;;;22.58;11.25;;;;;;;-6.02;100.00;102109.05;1727501;81;21068;-86
2022/01/08 02:19:34;;;;;;;18.67;10.35;;;;;;;-6.04;100.00;102113.67;1730136;82;21403;-86
2022/01/08 02:22:06;;;;;;;20.65;9.80;;;;;;;-6.13;100.00;102116.91;1729955;81;21484;-88
2022/01/08 02:24:33;;;;;;;16.12;8.93;;;;;;;-6.25;100.00;102111.16;1730487;81;21042;-87
2022/01/08 02:27:00;;;;;;;18.95;9.78;;;;;;;-6.31;100.00;102110.22;1729839;81;21693;-88
2022/01/08 02:29:27;;;;;;;19.87;10.13;;;;;;;-6.36;100.00;102116.46;1730147;81;21362;-88
2022/01/08 02:32:08;;;;;;;18.75;9.03;;;;;;;-6.40;100.00;102110.48;1729819;81;21963;-87
2022/01/08 02:34:40;;;;;;;15.18;7.10;;;;;;;-6.44;100.00;102107.42;1730004;81;21464;-88
2022/01/08 02:37:08;;;;;;;14.28;8.15;;;;;;;-6.45;100.00;102112.08;1729416;81;21065;-87
2022/01/08 02:39:41;;;;;;;13.68;7.70;;;;;;;-6.44;100.00;102115.45;1729398;81;21057;-87
2022/01/08 02:42:11;;;;;;;13.75;7.47;;;;;;;-6.42;100.00;102113.81;1708389;82;21555;-87
2022/01/08 02:44:41;;;;;;;13.30;7.78;;;;;;;-6.43;100.00;102109.14;1729570;81;21138;-88
2022/01/08 02:47:08;;;;;;;16.17;8.83;;;;;;;-6.42;100.00;102107.48;1730022;81;21511;-87
2022/01/08 02:49:37;;;;;;;99.52;38.42;;;;;;;-6.40;100.00;102109.22;1729873;83;21449;-87
2022/01/08 02:52:07;;;;;;;90.50;34.58;;;;;;;-6.39;100.00;102110.92;1730065;82;21576;-87
2022/01/08 02:54:36;;;;;;;81.22;28.77;;;;;;;-6.37;100.00;102116.86;1729679;81;21007;-88
2022/01/08 02:57:04;;;;;;;65.03;23.57;;;;;;;-6.36;100.00;102119.00;1730064;81;21812;-88
2022/01/08 02:59:33;;;;;;;75.32;27.87;;;;;;;-6.31;100.00;102126.70;1710950;83;20951;-87
2022/01/08 03:02:01;;;;;;;55.67;21.73;;;;;;;-6.26;100.00;102132.30;1729929;81;21018;-87
2022/01/08 03:04:28;;;;;;;35.20;14.63;;;;;;;-6.24;100.00;102136.13;1730198;81;21642;-88
2022/01/08 03:06:55;;;;;;;28.77;14.10;;;;;;;-6.28;100.00;102131.80;1729975;81;21549;-89
2022/01/08 03:09:23;;;;;;;27.58;13.65;;;;;;;-6.34;100.00;102135.95;1730202;81;21198;-89
2022/01/08 03:11:50;;;;;;;22.80;11.55;;;;;;;-6.42;100.00;102136.63;1719036;79;21090;-89
2022/01/08 03:14:17;;;;;;;19.45;10.13;;;;;;;-6.54;100.00;102126.68;1710850;81;21109;-88
2022/01/08 03:16:45;;;;;;;15.45;8.78;;;;;;;-6.56;100.00;102127.05;1705459;82;21029;-89
2022/01/08 03:19:15;;;;;;;18.50;9.30;;;;;;;-6.53;100.00;102136.00;1705699;82;20986;-90
2022/01/08 03:21:45;;;;;;;16.12;8.98;;;;;;;-6.48;100.00;102134.83;1677248;84;21065;-90
2022/01/08 03:24:24;;;;;;;16.20;9.15;;;;;;;-6.46;100.00;102135.72;1701991;82;21002;-90
2022/01/08 03:26:45;;;;;;;17.57;8.78;;;;;;;-6.46;100.00;102139.52;1701459;82;21064;-89
2022/01/08 03:29:12;;;;;;;21.05;9.50;;;;;;;-6.50;100.00;102140.27;1705720;82;21097;-90
2022/01/08 03:31:39;;;;;;;16.07;8.35;;;;;;;-6.55;100.00;102145.24;1677519;84;21002;-90
2022/01/08 03:34:07;;;;;;;16.12;8.10;;;;;;;-6.62;100.00;102155.23;1705667;82;21778;-89
2022/01/08 03:36:34;;;;;;;15.25;8.03;;;;;;;-6.69;100.00;102151.71;1705656;82;21042;-89
2022/01/08 03:39:02;;;;;;;17.45;9.03;;;;;;;-6.73;100.00;102152.48;1737183;80;21118;-88
2022/01/08 03:41:30;;;;;;;15.00;8.95;;;;;;;-6.78;100.00;102161.25;1740478;82;21001;-88
2022/01/08 03:43:57;;;;;;;15.88;8.78;;;;;;;-6.85;100.00;102157.72;1746815;81;21029;-87
2022/01/08 03:46:28;;;;;;;14.93;8.33;;;;;;;-6.89;100.00;102161.41;1746627;82;21049;-88
2022/01/08 03:51:31;;;;;;;12.82;6.75;;;;;;;-6.95;100.00;102154.95;1726118;81;21031;-89
2022/01/08 03:53:58;;;;;;;15.50;7.35;;;;;;;-6.93;100.00;102163.45;1728659;81;21556;-87
2022/01/08 03:56:28;;;;;;;17.15;7.65;;;;;;;-6.90;100.00;102159.30;1757458;80;21060;-89
2022/01/08 03:58:56;;;;;;;12.83;7.27;;;;;;;-6.84;100.00;102155.63;1740585;80;21143;-88
2022/01/08 04:01:24;;;;;;;13.20;7.10;;;;;;;-6.75;100.00;102156.23;1716759;80;21087;-88
2022/01/08 04:03:52;;;;;;;12.25;7.58;;;;;;;-6.61;100.00;102156.95;1743545;80;22164;-89
2022/01/08 04:06:19;;;;;;;12.40;7.55;;;;;;;-6.55;100.00;102157.07;1714565;80;21494;-89
2022/01/08 04:08:58;;;;;;;11.97;6.95;;;;;;;-6.49;100.00;102163.53;1723145;81;21049;-87
2022/01/08 04:11:27;;;;;;;12.05;6.40;;;;;;;-6.44;100.00;102164.89;1743802;80;21122;-87
2022/01/08 04:13:55;;;;;;;14.33;7.67;;;;;;;-6.35;100.00;102159.58;1750707;80;21028;-87
2022/01/08 04:16:30;;;;;;;11.30;6.87;;;;;;;-6.25;100.00;102161.04;1751269;80;20981;-87
2022/01/08 04:18:53;;;;;;;15.95;8.70;;;;;;;-6.13;100.00;102160.02;1750492;80;21594;-87
2022/01/08 04:24:00;;;;;;;17.87;10.23;;;;;;;-5.89;100.00;102168.87;1750982;80;21618;-87
2022/01/08 04:26:28;;;;;;;20.62;10.05;;;;;;;-5.80;100.00;102166.48;1769031;79;21020;-88
2022/01/08 04:28:56;;;;;;;16.90;9.38;;;;;;;-5.74;100.00;102173.36;1753776;80;21683;-87
2022/01/08 04:31:25;;;;;;;17.77;10.32;;;;;;;-5.71;100.00;102166.64;1743824;80;21506;-87
2022/01/08 04:33:54;;;;;;;;;;;;;;;-5.71;100.00;102172.16;1747654;80;21018;-87
2022/01/08 04:36:21;;;;;;;15.60;9.28;;;;;;;-5.75;100.00;102173.78;1768437;79;21112;-87
2022/01/08 04:38:48;;;;;;;17.17;9.45;;;;;;;-5.81;100.00;102180.02;1743081;80;21624;-87
2022/01/08 04:41:15;;;;;;;17.60;9.90;;;;;;;-5.87;100.00;102171.88;1742924;80;21008;-87
2022/01/08 04:43:43;;;;;;;21.02;10.03;;;;;;;-5.91;100.00;102171.80;1743080;81;20998;-87
2022/01/08 04:46:11;;;;;;;17.05;9.73;;;;;;;-5.95;100.00;102172.55;1743122;80;20945;-86
2022/01/08 04:48:38;;;;;;;21.30;11.28;;;;;;;-5.96;100.00;102175.91;1743150;82;21136;-87
2022/01/08 04:51:07;;;;;;;35.70;9.35;;;;;;;-5.97;100.00;102174.23;1742829;81;21024;-87
2022/01/08 04:53:34;;;;;;;17.87;9.33;;;;;;;-5.95;100.00;102177.62;1743228;81;21028;-88
2022/01/08 04:56:01;;;;;;;29.87;9.13;;;;;;;-5.87;100.00;102177.35;1743234;81;21025;-86
2022/01/08 04:58:28;;;;;;;27.15;8.93;;;;;;;-5.89;100.00;102183.67;1743123;81;21016;-87
2022/01/08 05:00:56;;;;;;;20.27;10.30;;;;;;;-5.79;100.00;102186.39;1743323;82;21438;-86
2022/01/08 05:03:24;;;;;;;16.45;9.78;;;;;;;-5.67;100.00;102189.56;1760764;80;21004;-87
2022/01/08 05:05:51;;;;;;;20.55;10.40;;;;;;;-5.71;100.00;102197.11;1738431;81;21521;-86
2022/01/08 05:08:18;;;;;;;23.27;10.35;;;;;;;-5.75;100.00;102192.81;1741730;82;21034;-86
2022/01/08 05:10:45;;;;;;;18.40;10.15;;;;;;;-5.79;100.00;102201.19;1722876;82;21604;-86
2022/01/08 05:13:12;;;;;;;23.73;10.80;;;;;;;-5.83;100.00;102199.83;1722572;82;21058;-86
2022/01/08 05:15:39;;;;;;;18.62;9.53;;;;;;;-5.83;100.00;102197.30;1741889;82;21031;-87
2022/01/08 05:18:09;;;;;;;17.42;8.65;;;;;;;-5.64;100.00;102206.09;1722259;80;21079;-87
2022/01/08 05:20:38;;;;;;;14.58;8.48;;;;;;;-5.31;100.00;102206.23;1740300;80;21044;-86
2022/01/08 05:23:05;;;;;;;17.10;9.53;;;;;;;-5.33;100.00;102201.56;1742230;81;21295;-88
2022/01/08 05:25:33;;;;;;;16.82;9.63;;;;;;;-5.45;100.00;102206.86;1743096;80;21323;-86
2022/01/08 05:28:01;;;;;;;18.60;9.33;;;;;;;-5.56;100.00;102207.08;1742791;80;21053;-85
2022/01/08 05:30:29;;;;;;;20.27;10.03;;;;;;;-5.67;100.00;102208.59;1743378;80;21005;-86
2022/01/08 05:32:57;;;;;;;18.60;8.65;;;;;;;-5.76;100.00;102211.80;1742836;81;21565;-85
2022/01/08 05:35:27;;;;;;;16.37;9.35;;;;;;;-5.83;100.00;102208.71;1750566;80;21060;-86
2022/01/08 05:37:54;;;;;;;17.45;10.20;;;;;;;-5.89;100.00;102212.02;1733703;81;21142;-86
2022/01/08 05:40:22;;;;;;;19.45;11.38;;;;;;;-5.94;100.00;102221.20;1748390;80;21605;-86
2022/01/08 05:42:50;;;;;;;24.12;12.73;;;;;;;-6.03;100.00;102216.84;1737503;82;21111;-87
2022/01/08 05:45:18;;;;;;;19.60;10.05;;;;;;;-6.14;100.00;102225.52;1737860;82;21037;-87
2022/01/08 05:47:45;;;;;;;24.18;12.23;;;;;;;-6.24;100.00;102221.92;1744854;82;21638;-86
2022/01/08 05:50:12;;;;;;;31.85;14.53;;;;;;;-6.32;100.00;102226.41;1718482;82;21072;-86
2022/01/08 05:52:40;;;;;;;39.27;18.70;;;;;;;-6.39;100.00;102229.20;1738210;82;21053;-86
2022/01/08 05:55:09;;;;;;;51.98;23.85;;;;;;;-6.48;100.00;102232.81;1738228;82;22400;-86
2022/01/08 05:57:36;;;;;;;41.13;20.65;;;;;;;-6.57;100.00;102233.48;1738093;82;21005;-86
2022/01/08 06:00:07;;;;;;;32.48;17.27;;;;;;;-6.69;100.00;102229.84;1745738;81;21083;-85
2022/01/08 06:02:38;;;;;;;34.05;17.77;;;;;;;-6.74;100.00;102230.16;1746379;80;21417;-87
2022/01/08 06:05:06;;;;;;;30.55;16.75;;;;;;;-6.75;100.00;102233.51;1762069;79;21072;-88
2022/01/08 06:07:35;;;;;;;28.52;15.85;;;;;;;-6.70;100.00;102238.68;1747846;82;21534;-88
2022/01/08 06:10:04;;;;;;;34.53;17.05;;;;;;;-6.66;100.00;102243.86;1728041;81;21504;-87
2022/01/08 06:12:31;;;;;;;27.50;15.23;;;;;;;-6.60;100.00;102247.34;1693121;82;21082;-87
2022/01/08 06:15:00;;;;;;;29.23;16.02;;;;;;;-6.57;100.00;102248.69;1764087;81;21096;-86
2022/01/08 06:17:27;;;;;;;33.13;18.57;;;;;;;-6.54;100.00;102241.16;1768673;81;21021;-86
2022/01/08 06:19:54;;;;;;;33.13;16.65;;;;;;;-6.51;100.00;102244.62;1776308;80;20973;-86
2022/01/08 06:22:21;;;;;;;28.50;17.17;;;;;;;-6.47;100.00;102249.73;1768925;81;21076;-86
2022/01/08 06:24:50;;;;;;;33.73;17.07;;;;;;;-6.46;100.00;102251.06;1745875;80;21048;-86
2022/01/08 06:27:17;;;;;;;42.27;21.68;;;;;;;-6.43;100.00;102256.17;1738148;82;21115;-86
2022/01/08 06:29:44;;;;;;;38.25;19.70;;;;;;;-6.41;100.00;102253.27;1745386;82;21008;-85
2022/01/08 06:32:14;;;;;;;42.10;20.12;;;;;;;-6.37;100.00;102256.30;1740717;81;21041;-86
2022/01/08 06:34:42;;;;;;;32.55;18.82;;;;;;;-6.36;100.00;102258.44;1725806;81;21084;-86
2022/01/08 06:37:11;;;;;;;32.67;17.42;;;;;;;-6.32;100.00;102255.56;1740007;82;21049;-86
2022/01/08 06:39:38;;;;;;;29.48;15.83;;;;;;;-6.29;100.00;102258.17;1743266;82;21136;-86
2022/01/08 06:42:06;;;;;;;31.70;16.35;;;;;;;-6.24;100.00;102257.42;1743343;81;21084;-86
2022/01/08 06:44:33;;;;;;;31.50;17.52;;;;;;;-6.17;100.00;102249.54;1751018;80;21510;-85
2022/01/08 06:47:01;;;;;;;38.48;18.75;;;;;;;-6.09;100.00;102250.55;1716754;82;21036;-85
2022/01/08 06:49:28;;;;;;;44.58;20.17;;;;;;;-6.04;100.00;102256.98;1719096;82;21066;-85
2022/01/08 06:51:54;;;;;;;35.73;17.52;;;;;;;-6.00;100.00;102262.55;1708313;84;21891;-87
2022/01/08 06:54:21;;;;;;;32.25;16.50;;;;;;;-5.97;100.00;102259.21;1716307;82;21015;-86
2022/01/08 06:56:50;;;;;;;35.45;18.35;;;;;;;-5.92;100.00;102256.34;1716606;82;21047;-86
2022/01/08 06:59:17;;;;;;;37.58;18.73;;;;;;;-5.85;100.00;102259.44;1708553;80;21062;-86
2022/01/08 07:01:44;;;;;;;31.57;17.70;;;;;;;-5.78;100.00;102260.42;1746535;79;21608;-87
2022/01/08 07:04:11;;;;;;;45.52;23.70;;;;;;;-5.72;100.00;102258.00;1754957;78;21678;-87
2022/01/08 07:06:38;;;;;;;35.15;19.20;;;;;;;-5.65;100.00;102262.36;1745148;80;21113;-84
2022/01/08 07:09:06;;;;;;;34.60;19.32;;;;;;;-5.57;100.00;102263.78;1773271;80;21128;-85
2022/01/08 07:11:33;;;;;;;38.55;20.32;;;;;;;-5.51;100.00;102263.02;1744721;80;21640;-85
2022/01/08 07:14:01;;;;;;;34.18;19.05;;;;;;;-5.45;100.00;102266.95;1744881;80;21073;-85
2022/01/08 07:16:29;;;;;;;32.53;19.25;;;;;;;-5.36;100.00;102271.33;1773079;80;21794;-86
2022/01/08 07:18:56;;;;;;;29.98;17.07;;;;;;;-5.29;100.00;102273.15;1773199;79;21547;-86
2022/01/08 07:21:23;;;;;;;32.03;17.12;;;;;;;-5.23;100.00;102272.85;1773414;79;21045;-87
2022/01/08 07:23:50;;;;;;;27.35;15.50;;;;;;;-5.13;100.00;102275.13;1773243;79;21460;-86
2022/01/08 07:26:17;;;;;;;35.33;18.25;;;;;;;-5.02;100.00;102278.27;1773304;80;21585;-86
2022/01/08 07:28:44;;;;;;;34.20;15.32;;;;;;;-4.92;100.00;102281.37;1745062;79;21056;-87
2022/01/08 07:31:11;;;;;;;20.37;12.43;;;;;;;-4.85;100.00;102274.31;1744838;80;21057;-89
2022/01/08 07:33:38;;;;;;;23.00;13.28;;;;;;;-4.73;100.00;102280.00;1744995;79;21037;-87
2022/01/08 07:36:05;;;;;;;21.73;12.63;;;;;;;-4.65;100.00;102280.97;1773460;79;21017;-87
2022/01/08 07:38:33;;;;;;;19.50;12.30;;;;;;;-4.58;100.00;102280.63;1774962;78;21041;-88
2022/01/08 07:41:00;;;;;;;23.12;13.22;;;;;;;-4.49;100.00;102278.22;1776438;78;21112;-87
2022/01/08 07:43:28;;;;;;;44.08;13.68;;;;;;;-4.39;100.00;102283.44;1796618;78;20991;-87
2022/01/08 07:45:55;;;;;;;28.85;12.68;;;;;;;-4.34;100.00;102280.53;1765573;79;21575;-86
2022/01/08 07:48:22;;;;;;;32.30;14.33;;;;;;;-4.04;100.00;102280.09;1776369;79;21011;-87
2022/01/08 07:50:49;;;;;;;30.48;12.07;;;;;;;-3.70;100.00;102279.22;1765245;79;21030;-86
2022/01/08 07:53:16;;;;;;;24.07;11.18;;;;;;;-3.44;100.00;102277.77;1765440;79;21121;-88
2022/01/08 07:55:43;;;;;;;19.92;9.75;;;;;;;-3.18;100.00;102280.55;1764762;79;21343;-88
2022/01/08 07:58:09;;;;;;;18.80;10.00;;;;;;;-2.91;100.00;102271.00;1765364;81;21077;-88
2022/01/08 08:00:36;;;;;;;17.87;9.65;;;;;;;-2.61;100.00;102274.64;1718842;82;21095;-88
2022/01/08 08:03:03;;;;;;;17.27;8.80;;;;;;;-2.41;100.00;102275.16;1738029;81;21527;-88
2022/01/08 08:05:31;;;;;;;15.65;9.03;;;;;;;-2.31;100.00;102274.37;1745762;80;21151;-88
2022/01/08 08:07:59;;;;;;;13.05;8.83;;;;;;;-2.13;100.00;102274.88;1738014;82;20993;-88
2022/01/08 08:10:29;;;;;;;18.12;9.45;;;;;;;-2.01;100.00;102275.36;1744479;80;21092;-89
2022/01/08 08:12:58;;;;;;;22.40;10.32;;;;;;;-1.99;100.00;102276.22;1727137;81;21073;-88
2022/01/08 08:15:27;;;;;;;16.25;8.90;;;;;;;-2.01;100.00;102271.97;1747143;81;21511;-89
2022/01/08 08:17:54;;;;;;;17.42;8.60;;;;;;;-1.98;100.00;102263.89;1716994;81;21174;-88
2022/01/08 08:20:22;;;;;;;24.77;8.38;;;;;;;-1.84;100.00;102262.64;1778150;79;21002;-88
2022/01/08 08:22:50;;;;;;;13.58;7.47;;;;;;;-1.69;100.00;102252.89;1747013;82;21012;-88
2022/01/08 08:25:17;;;;;;;14.23;7.72;;;;;;;-1.49;100.00;102258.48;1717484;82;21019;-88
2022/01/08 08:27:44;;;;;;;10.55;6.40;;;;;;;-1.35;100.00;102255.52;1725809;82;21074;-89
2022/01/08 08:30:13;;;;;;;12.33;6.90;;;;;;;-1.22;100.00;102249.98;1744838;81;21146;-89
2022/01/08 08:32:42;;;;;;;11.28;6.45;;;;;;;-1.19;100.00;102256.36;1680595;83;20986;-89
2022/01/08 08:35:10;;;;;;;9.95;5.53;;;;;;;-1.17;100.00;102252.11;1736667;81;21077;-89
2022/01/08 08:37:38;;;;;;;9.60;5.87;;;;;;;-1.09;100.00;102245.73;1707991;81;21084;-89
2022/01/08 08:40:06;;;;;;;8.28;5.15;;;;;;;-1.01;100.00;102239.32;1737438;81;21058;-88
2022/01/08 08:42:33;;;;;;;8.75;5.25;;;;;;;-0.85;100.00;102234.62;1732601;82;21529;-88
2022/01/08 08:45:02;;;;;;;9.63;5.28;;;;;;;-0.74;100.00;102233.31;1712312;82;21112;-89
2022/01/08 08:47:29;;;;;;;10.72;5.60;;;;;;;-0.66;100.00;102231.59;1733222;82;21045;-88
2022/01/08 08:49:56;;;;;;;8.90;5.72;;;;;;;-0.66;100.00;102227.75;1747746;80;21044;-88
2022/01/08 08:52:23;;;;;;;9.48;5.60;;;;;;;-0.61;100.00;102219.23;1723937;82;21090;-88
2022/01/08 08:54:51;;;;;;;12.58;5.85;;;;;;;-0.56;100.00;102216.22;1723361;81;21140;-82
2022/01/08 08:57:19;;;;;;;10.15;4.35;;;;;;;-0.50;100.00;102216.19;1737863;82;21503;-83
2022/01/08 08:59:46;;;;;;;4.33;2.70;;;;;;;-0.43;100.00;102210.20;1738207;81;21006;-82
2022/01/08 09:02:14;;;;;;;6.85;3.17;;;;;;;-0.30;100.00;102208.89;1738241;81;21005;-81
2022/01/08 09:04:42;;;;;;;8.45;3.55;;;;;;;-0.18;100.00;102198.58;1738304;82;21005;-82
2022/01/08 09:07:09;;;;;;;5.72;2.45;;;;;;;-0.12;100.00;102193.42;1738081;81;21121;-81
2022/01/08 09:09:37;;;;;;;18.50;2.67;;;;;;;-0.09;100.00;102183.17;1717231;82;21526;-82
2022/01/08 09:12:05;;;;;;;7.95;1.90;;;;;;;-0.06;100.00;102172.92;1738538;81;20994;-81
2022/01/08 09:14:32;;;;;;;9.15;3.22;;;;;;;-0.09;100.00;102171.64;1717195;82;20974;-83
2022/01/08 09:17:04;;;;;;;18.60;3.90;;;;;;;-0.09;100.00;102164.41;1737727;80;21586;-84
2022/01/08 09:19:34;;;;;;;34.48;5.10;;;;;;;-0.01;100.00;102163.94;1718776;81;21087;-82
2022/01/08 09:22:04;;;;;;;35.68;10.50;;;;;;;0.05;100.00;102160.05;1734763;81;21470;-82
2022/01/08 09:24:36;;;;;;;26.02;5.97;;;;;;;0.07;100.00;102163.87;1719311;83;21525;-81
2022/01/08 09:27:04;;;;;;;27.17;6.90;;;;;;;0.11;100.00;102157.44;1736291;81;21104;-82
2022/01/08 09:29:33;;;;;;;17.92;5.28;;;;;;;0.16;100.00;102158.69;1760793;79;21598;-83
2022/01/08 09:32:00;;;;;;;13.28;3.15;;;;;;;0.20;100.00;102150.11;1740286;81;21118;-82
2022/01/08 09:34:27;;;;;;;14.55;3.60;;;;;;;0.15;100.00;102155.29;1737043;81;21543;-81
2022/01/08 09:36:54;;;;;;;7.05;2.72;;;;;;;0.13;100.00;102143.33;1708627;82;21018;-82
2022/01/08 09:39:21;;;;;;;15.70;3.42;;;;;;;0.14;100.00;102140.78;1713027;82;21037;-82
2022/01/08 09:41:48;;;;;;;12.55;2.50;;;;;;;0.16;100.00;102135.63;1742961;81;21061;-86
2022/01/08 09:44:15;;;;;;;16.23;2.87;;;;;;;0.17;100.00;102130.93;1739572;81;21786;-82
2022/01/08 09:46:43;;;;;;;26.50;2.87;;;;;;;0.19;100.00;102129.63;1753565;79;21532;-82
2022/01/08 09:49:13;;;;;;;17.92;3.08;;;;;;;0.17;100.00;102119.41;1710437;82;21501;-81
2022/01/08 09:51:40;;;;;;;15.28;2.60;;;;;;;0.15;100.00;102116.86;1729977;81;21062;-81
2022/01/08 09:54:07;;;;;;;25.05;3.30;;;;;;;0.14;100.00;102113.88;1744968;80;21071;-81
2022/01/08 09:56:35;;;;;;;14.00;2.02;;;;;;;0.14;100.00;102097.64;1722194;80;21336;-83
2022/01/08 09:59:12;;;;;;;12.37;2.50;;;;;;;0.18;100.00;102095.48;1745976;80;20969;-83
2022/01/08 10:01:41;;;;;;;11.15;2.35;;;;;;;0.24;100.00;102095.43;1731572;80;21122;-84
2022/01/08 10:04:09;;;;;;;7.33;2.15;;;;;;;0.27;100.00;102095.42;1758559;80;21005;-82
2022/01/08 10:06:38;;;;;;;18.92;3.15;;;;;;;0.31;100.00;102085.98;1702602;80;21040;-82
2022/01/08 10:09:06;;;;;;;15.95;2.50;;;;;;;0.33;100.00;102082.13;1711214;81;21288;-82
2022/01/08 10:11:33;;;;;;;6.10;1.80;;;;;;;0.43;100.00;102083.75;1722584;80;21549;-81
2022/01/08 10:14:39;;;;;;;4.50;2.02;;;;;;;0.58;100.00;102084.88;1727818;81;21068;-83
2022/01/08 10:19:38;;;;;;;3.75;1.70;;;;;;;0.51;100.00;102081.97;1674461;83;20165;-81
2022/01/08 10:22:16;;;;;;;10.30;2.08;;;;;;;0.42;100.00;102079.48;1705675;81;21066;-82
2022/01/08 10:24:43;;;;;;;50.95;3.72;;;;;;;0.40;100.00;102079.47;1730157;81;21556;-81
2022/01/08 10:27:10;;;;;;;9.73;2.27;;;;;;;0.44;100.00;102075.20;1651165;85;21061;-80
2022/01/08 10:29:38;;;;;;;19.02;2.47;;;;;;;0.48;100.00;102077.30;1647523;85;21026;-81
2022/01/08 10:32:07;;;;;;;9.78;2.95;;;;;;;0.45;100.00;102077.73;1636911;84;21094;-82
2022/01/08 10:34:35;;;;;;;5.87;2.50;;;;;;;0.49;100.00;102074.71;1646116;84;21119;-84
2022/01/08 10:37:06;;;;;;;8.55;2.27;;;;;;;0.47;100.00;102072.59;1655462;84;21140;-84
2022/01/08 10:39:36;;;;;;;5.85;2.20;;;;;;;0.37;100.00;102062.00;1681242;83;21097;-81
2022/01/08 10:42:16;;;;;;;6.45;2.70;;;;;;;0.28;100.00;102065.50;1704042;82;21089;-84
2022/01/08 10:44:49;;;;;;;3.80;2.62;;;;;;;0.21;100.00;102058.30;1666405;83;21551;-88
2022/01/08 10:47:19;;;;;;;11.03;2.77;;;;;;;0.14;100.00;102056.65;1675174;84;21966;-85
2022/01/08 10:50:05;;;;;;;4.83;2.20;;;;;;;0.07;100.00;102055.00;1673887;83;21485;-84
2022/01/08 10:52:48;;;;;;;12.85;3.00;;;;;;;-0.03;100.00;102051.67;1694212;83;21821;-79
2022/01/08 10:55:32;;;;;;;7.33;2.50;;;;;;;-0.16;100.00;102056.87;1664457;84;21090;-83
2022/01/08 10:57:59;;;;;;;4.85;1.90;;;;;;;-0.23;100.00;102052.66;1678773;83;21093;-83
2022/01/08 11:00:32;;;;;;;5.12;2.00;;;;;;;-0.35;100.00;102059.98;1653059;84;21904;-83
2022/01/08 11:02:59;;;;;;;3.65;2.00;;;;;;;-0.44;100.00;102061.31;1648503;85;21071;-83
2022/01/08 11:05:28;;;;;;;8.83;2.12;;;;;;;-0.50;100.00;102060.08;1656617;84;21093;-83
2022/01/08 11:08:14;;;;;;;5.03;2.20;;;;;;;-0.54;100.00;102057.97;1649363;84;21130;-84
2022/01/08 11:10:42;;;;;;;4.40;2.12;;;;;;;-0.57;100.00;102053.30;1665062;84;21659;-82
2022/01/08 11:13:14;;;;;;;3.60;2.35;;;;;;;-0.63;100.00;102058.02;1653792;83;21139;-83
2022/01/08 11:15:51;;;;;;;4.65;2.15;;;;;;;-0.69;100.00;102058.92;1715341;82;21533;-83
2022/01/08 11:18:19;;;;;;;6.85;2.50;;;;;;;-0.70;100.00;102064.89;1709648;81;21020;-86
2022/01/08 11:20:47;;;;;;;4.25;2.08;;;;;;;-0.73;100.00;102066.61;1667641;84;21057;-87
2022/01/08 11:23:19;;;;;;;6.53;2.40;;;;;;;-0.76;100.00;102055.10;1668825;85;21824;-87
2022/01/08 11:25:49;;;;;;;4.95;2.42;;;;;;;-0.79;100.00;102050.86;1720928;82;21089;-83
2022/01/08 11:28:18;;;;;;;4.28;2.10;;;;;;;-0.83;100.00;102044.04;1717550;83;21106;-83
2022/01/08 11:30:52;;;;;;;5.37;2.40;;;;;;;-0.84;100.00;102042.37;1705415;82;21019;-84
2022/01/08 11:33:29;;;;;;;5.75;2.98;;;;;;;-0.87;100.00;102040.64;1676382;82;21054;-83
2022/01/08 11:35:56;;;;;;;7.70;2.95;;;;;;;-0.88;100.00;102039.38;1708966;82;21626;-87
2022/01/08 11:41:17;;;;;;;7.47;2.55;;;;;;;-0.81;100.00;102035.94;1742420;79;20997;-82